createdAt,value
2019-02-11T00:00:28.805Z,4.63
2019-02-11T00:01:32.596Z,4.72
2019-02-11T00:02:36.395Z,4.76
2019-02-11T00:03:40.074Z,4.83
2019-02-11T00:04:44.086Z,4.89
2019-02-11T00:05:47.726Z,4.91
2019-02-11T00:06:51.498Z,4.84
2019-02-11T00:07:55.146Z,4.80
2019-02-11T00:08:58.859Z,4.72
2019-02-11T00:10:02.962Z,4.62
2019-02-11T00:11:06.661Z,4.54
2019-02-11T00:12:10.452Z,4.57
2019-02-11T00:13:14.119Z,4.59
2019-02-11T00:14:17.841Z,4.59
2019-02-11T00:15:21.505Z,4.62
2019-02-11T00:16:25.227Z,4.60
2019-02-11T00:17:28.995Z,4.63
2019-02-11T00:18:32.715Z,4.62
2019-02-11T00:19:37.048Z,4.60
2019-02-11T00:20:40.713Z,4.58
2019-02-11T00:21:44.414Z,4.65
2019-02-11T00:22:48.135Z,4.65
2019-02-11T00:23:51.774Z,4.60
2019-02-11T00:24:55.487Z,4.56
2019-02-11T00:25:59.284Z,4.60
2019-02-11T00:27:03.002Z,4.64
2019-02-11T00:28:06.769Z,4.70
2019-02-11T00:29:10.523Z,4.75
2019-02-11T00:30:14.256Z,4.72
2019-02-11T00:31:18.023Z,4.77
2019-02-11T00:32:21.849Z,4.81
2019-02-11T00:33:25.542Z,4.77
2019-02-11T00:34:29.237Z,4.70
2019-02-11T00:35:32.938Z,4.70
2019-02-11T00:36:36.630Z,4.67
2019-02-11T00:37:40.316Z,4.64
2019-02-11T00:38:44.009Z,4.54
2019-02-11T00:39:47.703Z,4.51
2019-02-11T00:40:51.398Z,4.51
2019-02-11T00:41:55.089Z,4.55
2019-02-11T00:42:58.786Z,4.61
2019-02-11T00:44:02.474Z,4.66
2019-02-11T00:45:07.827Z,4.62
2019-02-11T00:46:11.498Z,4.57
2019-02-11T00:47:15.157Z,4.57
2019-02-11T00:48:18.808Z,4.59
2019-02-11T00:49:22.681Z,4.54
2019-02-11T00:50:26.473Z,4.51
2019-02-11T00:51:30.501Z,4.39
2019-02-11T00:52:34.175Z,4.43
2019-02-11T00:53:37.897Z,4.47
2019-02-11T00:54:41.656Z,4.54
2019-02-11T00:55:45.388Z,4.57
2019-02-11T00:56:49.059Z,4.52
2019-02-11T00:57:53.247Z,4.53
2019-02-11T00:58:56.942Z,4.52
2019-02-11T01:00:00.641Z,4.54
2019-02-11T01:01:04.432Z,4.55
2019-02-11T01:02:08.433Z,4.58
2019-02-11T01:03:12.411Z,4.58
2019-02-11T01:04:16.129Z,4.41
2019-02-11T01:05:19.841Z,4.37
2019-02-11T01:06:23.617Z,4.41
2019-02-11T01:07:27.338Z,4.44
2019-02-11T01:08:30.987Z,4.45
2019-02-11T01:09:34.797Z,4.49
2019-02-11T01:10:38.498Z,4.52
2019-02-11T01:11:42.230Z,4.41
2019-02-11T01:12:46.213Z,4.33
2019-02-11T01:13:51.554Z,4.37
2019-02-11T01:14:55.476Z,4.30
2019-02-11T01:15:59.311Z,4.35
2019-02-11T01:17:03.110Z,4.35
2019-02-11T01:18:06.765Z,4.37
2019-02-11T01:19:10.459Z,4.38
2019-02-11T01:20:14.040Z,4.41
2019-02-11T01:21:18.193Z,4.42
2019-02-11T01:22:21.988Z,4.46
2019-02-11T01:23:25.677Z,4.53
2019-02-11T01:24:29.476Z,4.61
2019-02-11T01:25:33.167Z,4.59
2019-02-11T01:26:36.965Z,4.47
2019-02-11T01:27:40.754Z,4.48
2019-02-11T01:28:44.415Z,4.43
2019-02-11T01:29:48.256Z,4.36
2019-02-11T01:30:51.908Z,4.30
2019-02-11T01:31:55.572Z,4.31
2019-02-11T01:32:59.227Z,4.39
2019-02-11T01:34:02.916Z,4.41
2019-02-11T01:35:07.690Z,4.40
2019-02-11T01:36:11.347Z,4.41
2019-02-11T01:37:15.126Z,4.48
2019-02-11T01:38:18.822Z,4.43
2019-02-11T01:39:22.510Z,4.38
2019-02-11T01:40:26.288Z,4.41
2019-02-11T01:41:29.995Z,4.35
2019-02-11T01:42:33.663Z,4.27
2019-02-11T01:43:37.488Z,4.31
2019-02-11T01:44:41.145Z,4.34
2019-02-11T01:45:44.902Z,4.39
2019-02-11T01:46:48.566Z,4.38
2019-02-11T01:47:52.222Z,4.42
2019-02-11T01:48:55.947Z,4.48
2019-02-11T01:49:59.642Z,4.47
2019-02-11T01:51:03.541Z,4.48
2019-02-11T01:52:07.233Z,4.50
2019-02-11T01:53:11.336Z,4.50
2019-02-11T01:54:15.031Z,4.50
2019-02-11T01:55:18.720Z,4.48
2019-02-11T01:56:22.518Z,4.43
2019-02-11T01:57:26.619Z,4.47
2019-02-11T01:58:30.317Z,4.51
2019-02-11T01:59:33.985Z,4.45
2019-02-11T02:00:37.703Z,4.42
2019-02-11T02:01:41.500Z,4.44
2019-02-11T02:02:45.162Z,4.41
2019-02-11T02:03:48.882Z,4.41
2019-02-11T02:04:52.575Z,4.39
2019-02-11T02:05:56.252Z,4.38
2019-02-11T02:06:59.950Z,4.34
2019-02-11T02:08:03.642Z,4.36
2019-02-11T02:09:08.094Z,4.34
2019-02-11T02:10:14.307Z,4.38
2019-02-11T02:11:18.013Z,4.43
2019-02-11T02:12:21.807Z,4.47
2019-02-11T02:13:25.465Z,4.52
2019-02-11T02:14:29.191Z,4.50
2019-02-11T02:15:32.887Z,4.52
2019-02-11T02:16:36.577Z,4.51
2019-02-11T02:17:40.475Z,4.40
2019-02-11T02:18:44.172Z,4.36
2019-02-11T02:19:47.964Z,4.34
2019-02-11T02:20:52.070Z,4.33
2019-02-11T02:21:55.736Z,4.18
2019-02-11T02:22:59.455Z,4.15
2019-02-11T02:24:03.151Z,4.19
2019-02-11T02:25:08.707Z,4.19
2019-02-11T02:26:12.360Z,4.17
2019-02-11T02:27:16.070Z,4.24
2019-02-11T02:28:19.865Z,4.29
2019-02-11T02:29:23.520Z,4.29
2019-02-11T02:30:27.048Z,4.17
2019-02-11T02:31:30.637Z,4.23
2019-02-11T02:32:34.292Z,4.23
2019-02-11T02:33:38.024Z,4.20
2019-02-11T02:34:41.688Z,4.20
2019-02-11T02:35:45.207Z,4.21
2019-02-11T02:36:49.271Z,4.19
2019-02-11T02:37:53.010Z,4.16
2019-02-11T02:38:56.687Z,4.24
2019-02-11T02:40:00.720Z,4.26
2019-02-11T02:41:04.493Z,4.32
2019-02-11T02:42:08.186Z,4.34
2019-02-11T02:43:11.847Z,4.27
2019-02-11T02:44:15.586Z,4.22
2019-02-11T02:45:19.265Z,4.23
2019-02-11T02:46:23.080Z,4.26
2019-02-11T02:47:26.754Z,4.24
2019-02-11T02:48:30.447Z,4.23
2019-02-11T02:49:34.284Z,4.26
2019-02-11T02:50:37.836Z,4.30
2019-02-11T02:51:41.529Z,4.33
2019-02-11T02:52:45.248Z,4.38
2019-02-11T02:53:48.889Z,4.40
2019-02-11T02:54:52.586Z,4.41
2019-02-11T02:55:56.299Z,4.36
2019-02-11T02:56:59.962Z,4.25
2019-02-11T02:58:03.666Z,4.14
2019-02-11T02:59:07.387Z,4.08
2019-02-11T03:00:12.096Z,3.99
2019-02-11T03:01:16.026Z,3.96
2019-02-11T03:02:19.787Z,3.92
2019-02-11T03:03:23.470Z,3.88
2019-02-11T03:04:27.584Z,3.88
2019-02-11T03:05:31.484Z,3.84
2019-02-11T03:06:35.177Z,3.84
2019-02-11T03:07:38.895Z,3.80
2019-02-11T03:08:42.670Z,3.82
2019-02-11T03:09:46.693Z,3.90
2019-02-11T03:10:50.331Z,3.96
2019-02-11T03:11:53.954Z,3.98
2019-02-11T03:12:57.748Z,4.01
2019-02-11T03:14:05.603Z,4.06
2019-02-11T03:15:09.157Z,4.01
2019-02-11T03:16:12.915Z,3.94
2019-02-11T03:17:17.022Z,3.93
2019-02-11T03:18:20.691Z,3.95
2019-02-11T03:19:24.415Z,3.93
2019-02-11T03:20:28.135Z,3.85
2019-02-11T03:21:31.836Z,3.80
2019-02-11T03:22:35.446Z,3.80
2019-02-11T03:23:39.166Z,3.81
2019-02-11T03:24:42.978Z,3.80
2019-02-11T03:25:47.081Z,3.66
2019-02-11T03:26:51.285Z,3.63
2019-02-11T03:27:55.078Z,3.61
2019-02-11T03:28:58.878Z,3.58
2019-02-11T03:30:02.576Z,3.62
2019-02-11T03:31:06.163Z,3.63
2019-02-11T03:32:09.870Z,3.72
2019-02-11T03:33:13.553Z,3.77
2019-02-11T03:34:17.280Z,3.83
2019-02-11T03:35:20.872Z,3.81
2019-02-11T03:36:24.627Z,3.79
2019-02-11T03:37:28.651Z,3.70
2019-02-11T03:38:32.422Z,3.60
2019-02-11T03:39:36.218Z,3.60
2019-02-11T03:40:39.911Z,3.58
2019-02-11T03:41:43.656Z,3.52
2019-02-11T03:42:47.322Z,3.44
2019-02-11T03:43:51.409Z,3.36
2019-02-11T03:44:54.978Z,3.35
2019-02-11T03:45:58.686Z,3.38
2019-02-11T03:47:02.482Z,3.36
2019-02-11T03:48:06.279Z,3.31
2019-02-11T03:49:10.068Z,3.27
2019-02-11T03:50:13.762Z,3.29
2019-02-11T03:51:17.426Z,3.31
2019-02-11T03:52:21.150Z,3.34
2019-02-11T03:53:24.947Z,3.40
2019-02-11T03:54:28.746Z,3.48
2019-02-11T03:55:32.775Z,3.48
2019-02-11T03:56:36.539Z,3.53
2019-02-11T03:57:40.743Z,3.48
2019-02-11T03:58:44.440Z,3.46
2019-02-11T03:59:48.092Z,3.40
2019-02-11T04:00:51.924Z,3.28
2019-02-11T04:01:55.618Z,3.20
2019-02-11T04:02:59.824Z,3.24
2019-02-11T04:04:03.513Z,3.21
2019-02-11T04:05:07.978Z,3.23
2019-02-11T04:06:11.629Z,3.27
2019-02-11T04:07:15.319Z,3.20
2019-02-11T04:08:19.045Z,3.20
2019-02-11T04:09:22.698Z,3.29
2019-02-11T04:10:26.498Z,3.37
2019-02-11T04:11:30.156Z,3.42
2019-02-11T04:12:33.883Z,3.49
2019-02-11T04:13:37.677Z,3.57
2019-02-11T04:14:41.383Z,3.64
2019-02-11T04:15:45.061Z,3.70
2019-02-11T04:16:48.756Z,3.74
2019-02-11T04:17:52.407Z,3.67
2019-02-11T04:18:56.067Z,3.64
2019-02-11T04:19:59.835Z,3.65
2019-02-11T04:21:03.535Z,3.50
2019-02-11T04:22:08.407Z,3.44
2019-02-11T04:23:12.375Z,3.39
2019-02-11T04:24:16.159Z,3.29
2019-02-11T04:25:19.937Z,3.30
2019-02-11T04:26:23.600Z,3.34
2019-02-11T04:27:27.324Z,3.32
2019-02-11T04:28:31.223Z,3.32
2019-02-11T04:29:34.917Z,3.37
2019-02-11T04:30:38.710Z,3.41
2019-02-11T04:31:42.405Z,3.48
2019-02-11T04:32:46.095Z,3.53
2019-02-11T04:33:49.755Z,3.53
2019-02-11T04:34:53.489Z,3.58
2019-02-11T04:35:57.279Z,3.59
2019-02-11T04:37:01.074Z,3.65
2019-02-11T04:38:04.766Z,3.63
2019-02-11T04:39:08.886Z,3.49
2019-02-11T04:40:12.976Z,3.42
2019-02-11T04:41:16.673Z,3.38
2019-02-11T04:42:20.326Z,3.33
2019-02-11T04:43:24.287Z,3.32
2019-02-11T04:44:33.989Z,3.28
2019-02-11T04:45:33.387Z,3.21
2019-02-11T04:46:37.076Z,3.23
2019-02-11T04:47:40.771Z,3.27
2019-02-11T04:48:44.700Z,3.29
2019-02-11T04:49:48.363Z,3.37
2019-02-11T04:50:52.017Z,3.46
2019-02-11T04:51:55.746Z,3.55
2019-02-11T04:52:59.410Z,3.60
2019-02-11T04:54:03.049Z,3.58
2019-02-11T04:55:08.990Z,3.54
2019-02-11T04:56:12.671Z,3.56
2019-02-11T04:57:16.372Z,3.51
2019-02-11T04:58:20.144Z,3.51
2019-02-11T04:59:23.854Z,3.48
2019-02-11T05:00:27.894Z,3.42
2019-02-11T05:01:31.923Z,3.35
2019-02-11T05:02:35.628Z,3.28
2019-02-11T05:03:39.294Z,3.32
2019-02-11T05:04:43.039Z,3.36
2019-02-11T05:05:46.728Z,3.35
2019-02-11T05:06:50.421Z,3.39
2019-02-11T05:07:54.216Z,3.47
2019-02-11T05:08:57.868Z,3.49
2019-02-11T05:10:01.609Z,3.50
2019-02-11T05:11:05.304Z,3.45
2019-02-11T05:12:08.891Z,3.46
2019-02-11T05:13:12.918Z,3.45
2019-02-11T05:14:16.685Z,3.41
2019-02-11T05:15:20.791Z,3.39
2019-02-11T05:16:24.495Z,3.44
2019-02-11T05:17:28.195Z,3.47
2019-02-11T05:18:31.971Z,3.40
2019-02-11T05:19:35.662Z,3.32
2019-02-11T05:20:39.356Z,3.36
2019-02-11T05:21:43.022Z,3.39
2019-02-11T05:22:46.744Z,3.32
2019-02-11T05:23:50.538Z,3.28
2019-02-11T05:24:54.273Z,3.18
2019-02-11T05:25:57.935Z,3.17
2019-02-11T05:27:01.620Z,3.11
2019-02-11T05:28:05.308Z,3.06
2019-02-11T05:29:09.106Z,3.06
2019-02-11T05:30:12.764Z,3.06
2019-02-11T05:31:16.499Z,3.07
2019-02-11T05:32:20.285Z,3.03
2019-02-11T05:33:23.975Z,3.03
2019-02-11T05:34:27.649Z,3.06
2019-02-11T05:35:31.371Z,2.97
2019-02-11T05:36:35.160Z,3.06
2019-02-11T05:37:38.817Z,3.06
2019-02-11T05:38:42.549Z,3.02
2019-02-11T05:39:46.449Z,2.95
2019-02-11T05:40:50.039Z,3.01
2019-02-11T05:41:53.735Z,3.02
2019-02-11T05:42:57.678Z,3.01
2019-02-11T05:44:01.454Z,3.07
2019-02-11T05:45:06.770Z,2.97
2019-02-11T05:46:10.497Z,2.97
2019-02-11T05:47:14.245Z,3.00
2019-02-11T05:48:18.048Z,3.02
2019-02-11T05:49:22.139Z,3.04
2019-02-11T05:50:26.251Z,3.00
2019-02-11T05:51:29.940Z,2.94
2019-02-11T05:52:33.633Z,2.94
2019-02-11T05:53:37.284Z,2.88
2019-02-11T05:54:41.022Z,2.89
2019-02-11T05:55:44.810Z,2.85
2019-02-11T05:56:48.501Z,2.78
2019-02-11T05:57:52.304Z,2.75
2019-02-11T05:58:56.096Z,2.70
2019-02-11T05:59:59.781Z,2.72
2019-02-11T06:01:03.591Z,2.74
2019-02-11T06:02:07.287Z,2.71
2019-02-11T06:03:10.979Z,2.68
2019-02-11T06:04:14.666Z,2.72
2019-02-11T06:05:18.384Z,2.82
2019-02-11T06:06:22.154Z,2.86
2019-02-11T06:07:25.863Z,2.90
2019-02-11T06:08:29.647Z,2.88
2019-02-11T06:09:33.316Z,2.79
2019-02-11T06:10:37.111Z,2.71
2019-02-11T06:11:40.799Z,2.69
2019-02-11T06:12:44.517Z,2.76
2019-02-11T06:13:48.214Z,2.83
2019-02-11T06:14:52.009Z,2.88
2019-02-11T06:15:55.661Z,2.90
2019-02-11T06:16:59.396Z,2.91
2019-02-11T06:18:03.159Z,2.83
2019-02-11T06:19:07.216Z,2.91
2019-02-11T06:20:11.251Z,2.94
2019-02-11T06:21:14.961Z,2.91
2019-02-11T06:22:18.780Z,2.93
2019-02-11T06:23:22.581Z,2.95
2019-02-11T06:24:26.245Z,2.96
2019-02-11T06:25:29.963Z,2.98
2019-02-11T06:26:33.621Z,3.05
2019-02-11T06:27:37.203Z,3.10
2019-02-11T06:28:40.902Z,3.12
2019-02-11T06:29:44.634Z,3.20
2019-02-11T06:30:48.302Z,3.29
2019-02-11T06:31:51.891Z,3.34
2019-02-11T06:32:55.510Z,3.27
2019-02-11T06:33:59.212Z,3.30
2019-02-11T06:35:02.999Z,3.42
2019-02-11T06:36:12.582Z,3.53
2019-02-11T06:37:12.126Z,3.58
2019-02-11T06:38:15.816Z,3.58
2019-02-11T06:39:19.494Z,3.63
2019-02-11T06:40:23.156Z,3.69
2019-02-11T06:41:26.804Z,3.77
2019-02-11T06:42:30.486Z,3.88
2019-02-11T06:43:34.177Z,3.90
2019-02-11T06:44:37.821Z,3.97
2019-02-11T06:45:41.908Z,4.05
2019-02-11T06:46:45.574Z,4.15
2019-02-11T06:47:49.368Z,4.33
2019-02-11T06:48:53.057Z,4.48
2019-02-11T06:49:56.750Z,4.60
2019-02-11T06:51:00.956Z,4.70
2019-02-11T06:52:05.058Z,4.89
2019-02-11T06:53:08.763Z,4.96
2019-02-11T06:54:12.441Z,5.01
2019-02-11T06:55:16.227Z,5.16
2019-02-11T06:56:19.930Z,5.30
2019-02-11T06:57:23.593Z,5.44
2019-02-11T06:58:27.312Z,5.55
2019-02-11T06:59:30.964Z,5.68
2019-02-11T07:00:34.693Z,5.78
2019-02-11T07:01:38.356Z,5.91
2019-02-11T07:02:42.005Z,6.03
2019-02-11T07:03:45.888Z,6.17
2019-02-11T07:04:49.581Z,6.22
2019-02-11T07:05:53.258Z,6.30
2019-02-11T07:06:56.936Z,6.51
2019-02-11T07:08:00.519Z,6.67
2019-02-11T07:09:05.407Z,6.76
2019-02-11T07:10:11.239Z,6.98
2019-02-11T07:11:14.925Z,7.03
2019-02-11T07:12:18.713Z,7.10
2019-02-11T07:13:22.401Z,7.21
2019-02-11T07:14:26.095Z,7.36
2019-02-11T07:15:29.788Z,7.47
2019-02-11T07:16:33.620Z,7.59
2019-02-11T07:17:37.463Z,7.66
2019-02-11T07:18:41.107Z,7.74
2019-02-11T07:19:44.788Z,7.74
2019-02-11T07:20:48.569Z,7.79
2019-02-11T07:21:52.251Z,7.76
2019-02-11T07:22:55.901Z,7.88
2019-02-11T07:23:59.642Z,7.87
2019-02-11T07:25:03.438Z,7.75
2019-02-11T07:26:07.126Z,7.82
2019-02-11T07:27:10.820Z,7.93
2019-02-11T07:28:14.924Z,8.04
2019-02-11T07:29:18.681Z,8.08
2019-02-11T07:30:22.301Z,8.03
2019-02-11T07:31:26.242Z,7.98
2019-02-11T07:32:30.006Z,8.07
2019-02-11T07:33:33.701Z,8.07
2019-02-11T07:34:37.395Z,8.17
2019-02-11T07:35:41.540Z,8.28
2019-02-11T07:36:45.201Z,8.41
2019-02-11T07:37:48.986Z,8.49
2019-02-11T07:38:52.707Z,8.53
2019-02-11T07:39:56.478Z,8.61
2019-02-11T07:41:00.170Z,8.68
2019-02-11T07:42:11.536Z,8.80
2019-02-11T07:43:18.794Z,8.97
2019-02-11T07:44:23.983Z,9.02
2019-02-11T07:45:30.296Z,9.14
2019-02-11T07:46:35.843Z,9.38
2019-02-11T07:47:39.524Z,9.48
2019-02-11T07:48:43.326Z,9.57
2019-02-11T07:49:47.052Z,9.60
2019-02-11T07:50:50.912Z,9.61
2019-02-11T07:51:54.710Z,9.63
2019-02-11T07:52:58.408Z,9.61
2019-02-11T07:54:02.101Z,9.70
2019-02-11T07:55:06.254Z,9.77
2019-02-11T07:56:09.992Z,9.78
2019-02-11T07:57:15.622Z,9.71
2019-02-11T07:58:20.811Z,9.68
2019-02-11T07:59:24.494Z,9.82
2019-02-11T08:00:28.222Z,9.89
2019-02-11T08:01:31.871Z,9.77
2019-02-11T08:02:35.877Z,9.71
2019-02-11T08:03:39.920Z,9.77
2019-02-11T08:04:43.638Z,9.81
2019-02-11T08:05:47.439Z,9.84
2019-02-11T08:06:51.535Z,9.85
2019-02-11T08:07:55.332Z,9.90
2019-02-11T08:08:58.915Z,9.94
2019-02-11T08:10:02.668Z,9.97
2019-02-11T08:11:06.384Z,9.99
2019-02-11T08:12:09.971Z,10.01
2019-02-11T08:13:13.695Z,10.00
2019-02-11T08:14:17.389Z,10.00
2019-02-11T08:15:21.087Z,9.96
2019-02-11T08:16:24.776Z,10.02
2019-02-11T08:17:28.712Z,10.04
2019-02-11T08:18:34.114Z,10.20
2019-02-11T08:19:37.775Z,10.35
2019-02-11T08:20:41.556Z,10.45
2019-02-11T08:21:45.637Z,10.48
2019-02-11T08:22:49.389Z,10.47
2019-02-11T08:23:53.196Z,10.46
2019-02-11T08:24:56.879Z,10.61
2019-02-11T08:26:02.721Z,10.75
2019-02-11T08:27:12.834Z,10.91
2019-02-11T08:28:19.416Z,10.91
2019-02-11T08:29:17.282Z,11.01
2019-02-11T08:30:21.092Z,11.13
2019-02-11T08:31:24.985Z,11.13
2019-02-11T08:32:31.546Z,11.11
2019-02-11T08:33:35.209Z,11.17
2019-02-11T08:34:38.967Z,11.56
2019-02-11T08:35:42.668Z,11.60
2019-02-11T08:36:46.946Z,11.60
2019-02-11T08:37:50.727Z,11.51
2019-02-11T08:38:54.398Z,11.51
2019-02-11T08:39:58.050Z,11.43
2019-02-11T08:41:01.706Z,11.33
2019-02-11T08:42:05.800Z,11.35
2019-02-11T08:43:09.443Z,11.35
2019-02-11T08:44:13.171Z,11.35
2019-02-11T08:45:16.897Z,11.87
2019-02-11T08:46:20.571Z,12.18
2019-02-11T08:47:24.271Z,12.18
2019-02-11T08:48:28.066Z,12.42
2019-02-11T08:49:33.812Z,12.44
2019-02-11T08:50:39.153Z,12.44
2019-02-11T08:51:42.835Z,12.46
2019-02-11T08:52:46.577Z,12.36
2019-02-11T08:53:50.327Z,12.45
2019-02-11T08:54:54.015Z,12.45
2019-02-11T08:55:57.703Z,12.37
2019-02-11T08:57:01.434Z,12.37
2019-02-11T08:58:05.199Z,12.43
2019-02-11T08:59:08.899Z,12.39
2019-02-11T09:00:13.134Z,12.38
2019-02-11T09:01:16.795Z,12.36
2019-02-11T09:02:20.594Z,12.24
2019-02-11T09:03:24.276Z,12.24
2019-02-11T09:04:31.218Z,12.24
2019-02-11T09:05:35.042Z,12.19
2019-02-11T09:06:38.836Z,12.27
2019-02-11T09:07:42.544Z,12.27
2019-02-11T09:08:46.432Z,12.37
2019-02-11T09:09:50.228Z,12.42
2019-02-11T09:10:53.914Z,12.43
2019-02-11T09:11:57.722Z,12.48
2019-02-11T09:13:01.508Z,12.55
2019-02-11T09:14:05.210Z,12.67
2019-02-11T09:15:11.646Z,12.67
2019-02-11T09:16:15.454Z,13.08
2019-02-11T09:17:19.263Z,13.08
2019-02-11T09:18:26.836Z,13.19
2019-02-11T09:19:30.535Z,13.30
2019-02-11T09:20:34.904Z,13.31
2019-02-11T09:21:38.635Z,13.19
2019-02-11T09:22:42.428Z,13.23
2019-02-11T09:23:47.958Z,13.17
2019-02-11T09:24:51.711Z,13.21
2019-02-11T09:25:55.452Z,13.21
2019-02-11T09:26:59.250Z,13.33
2019-02-11T09:28:04.561Z,13.38
2019-02-11T09:29:08.373Z,13.49
2019-02-11T09:30:15.144Z,13.48
2019-02-11T09:31:20.375Z,13.46
2019-02-11T09:32:24.079Z,13.41
2019-02-11T09:33:27.740Z,13.48
2019-02-11T09:34:34.671Z,13.50
2019-02-11T09:35:38.594Z,13.38
2019-02-11T09:36:42.326Z,13.62
2019-02-11T09:37:45.981Z,13.91
2019-02-11T09:38:49.650Z,13.96
2019-02-11T09:39:53.409Z,13.94
2019-02-11T09:40:57.189Z,13.91
2019-02-11T09:42:00.883Z,13.98
2019-02-11T09:43:04.574Z,14.01
2019-02-11T09:44:08.272Z,14.08
2019-02-11T09:45:17.209Z,13.96
2019-02-11T09:46:21.806Z,14.03
2019-02-11T09:47:25.599Z,14.25
2019-02-11T09:48:29.390Z,14.49
2019-02-11T09:49:33.185Z,14.79
2019-02-11T09:50:45.348Z,15.15
2019-02-11T09:51:49.525Z,15.48
2019-02-11T09:52:53.293Z,15.62
2019-02-11T09:53:57.040Z,15.75
2019-02-11T09:55:00.769Z,15.74
2019-02-11T09:56:04.981Z,15.72
2019-02-11T09:57:08.675Z,15.47
2019-02-11T09:58:12.359Z,15.45
2019-02-11T09:59:16.153Z,15.37
2019-02-11T10:00:20.051Z,15.54
2019-02-11T10:01:23.852Z,15.91
2019-02-11T10:02:27.985Z,16.18
2019-02-11T10:03:31.744Z,16.31
2019-02-11T10:04:36.737Z,16.36
2019-02-11T10:05:40.461Z,16.37
2019-02-11T10:06:44.289Z,16.32
2019-02-11T10:07:48.064Z,16.07
2019-02-11T10:08:51.850Z,16.18
2019-02-11T10:09:55.595Z,16.35
2019-02-11T10:10:59.198Z,16.49
2019-02-11T10:12:03.820Z,16.62
2019-02-11T10:13:07.647Z,16.87
2019-02-11T10:14:11.432Z,16.85
2019-02-11T10:15:15.788Z,16.85
2019-02-11T10:16:19.707Z,16.80
2019-02-11T10:17:29.631Z,16.61
2019-02-11T10:18:29.196Z,16.49
2019-02-11T10:19:34.874Z,16.47
2019-02-11T10:20:39.107Z,16.43
2019-02-11T10:21:43.036Z,16.26
2019-02-11T10:22:47.056Z,16.28
2019-02-11T10:23:51.575Z,16.20
2019-02-11T10:24:56.834Z,16.20
2019-02-11T10:26:00.510Z,16.12
2019-02-11T10:27:04.569Z,16.31
2019-02-11T10:28:10.539Z,16.27
2019-02-11T10:29:14.519Z,16.37
2019-02-11T10:30:18.716Z,16.33
2019-02-11T10:31:22.515Z,16.34
2019-02-11T10:32:26.754Z,16.26
2019-02-11T10:33:37.240Z,16.19
2019-02-11T10:34:41.002Z,16.06
2019-02-11T10:35:44.857Z,15.93
2019-02-11T10:36:48.628Z,15.75
2019-02-11T10:37:52.252Z,15.58
2019-02-11T10:38:55.992Z,15.53
2019-02-11T10:39:59.893Z,15.39
2019-02-11T10:41:03.639Z,15.31
2019-02-11T10:42:07.316Z,15.31
2019-02-11T10:43:11.064Z,15.22
2019-02-11T10:44:14.716Z,15.05
2019-02-11T10:45:18.483Z,15.05
2019-02-11T10:46:22.137Z,15.01
2019-02-11T10:47:25.793Z,14.96
2019-02-11T10:48:29.590Z,14.85
2019-02-11T10:49:33.312Z,14.71
2019-02-11T10:50:37.000Z,14.71
2019-02-11T10:51:40.728Z,14.74
2019-02-11T10:52:44.394Z,14.70
2019-02-11T10:53:48.062Z,14.70
2019-02-11T10:54:51.725Z,14.64
2019-02-11T10:55:55.778Z,14.66
2019-02-11T10:56:59.435Z,14.60
2019-02-11T10:58:03.098Z,14.64
2019-02-11T10:59:06.757Z,14.78
2019-02-11T11:00:16.006Z,14.81
2019-02-11T11:01:19.701Z,14.74
2019-02-11T11:02:23.438Z,14.84
2019-02-11T11:03:27.171Z,15.03
2019-02-11T11:04:31.164Z,15.34
2019-02-11T11:05:34.822Z,15.56
2019-02-11T11:06:38.823Z,15.49
2019-02-11T11:07:42.520Z,15.47
2019-02-11T11:08:46.115Z,15.51
2019-02-11T11:09:49.836Z,15.33
2019-02-11T11:10:53.497Z,15.33
2019-02-11T11:11:57.213Z,15.32
2019-02-11T11:13:00.986Z,15.27
2019-02-11T11:14:06.089Z,15.25
2019-02-11T11:15:10.725Z,15.23
2019-02-11T11:16:14.421Z,15.31
2019-02-11T11:17:18.109Z,15.27
2019-02-11T11:18:23.238Z,15.14
2019-02-11T11:19:27.344Z,15.14
2019-02-11T11:20:31.530Z,15.11
2019-02-11T11:21:35.444Z,15.05
2019-02-11T11:22:39.247Z,14.59
2019-02-11T11:23:42.935Z,14.59
2019-02-11T11:24:46.598Z,14.37
2019-02-11T11:25:50.251Z,14.37
2019-02-11T11:26:53.905Z,14.38
2019-02-11T11:27:57.712Z,14.41
2019-02-11T11:29:01.809Z,14.30
2019-02-11T11:30:12.019Z,14.30
2019-02-11T11:31:15.607Z,14.37
2019-02-11T11:32:19.646Z,14.37
2019-02-11T11:33:23.448Z,14.35
2019-02-11T11:34:27.138Z,14.19
2019-02-11T11:35:30.936Z,14.19
2019-02-11T11:36:34.726Z,14.15
2019-02-11T11:37:38.400Z,14.08
2019-02-11T11:38:44.957Z,13.95
2019-02-11T11:39:48.689Z,13.97
2019-02-11T11:40:52.475Z,13.81
2019-02-11T11:41:56.124Z,13.81
2019-02-11T11:42:59.958Z,13.74
2019-02-11T11:44:03.665Z,13.70
2019-02-11T11:45:13.189Z,13.69
2019-02-11T11:46:16.840Z,13.71
2019-02-11T11:47:20.576Z,13.65
2019-02-11T11:48:24.262Z,13.70
2019-02-11T11:49:30.369Z,13.64
2019-02-11T11:50:34.111Z,13.70
2019-02-11T11:51:37.771Z,13.62
2019-02-11T11:52:41.426Z,13.56
2019-02-11T11:53:45.086Z,13.65
2019-02-11T11:54:48.881Z,13.59
2019-02-11T11:55:52.601Z,13.60
2019-02-11T11:56:59.296Z,13.68
2019-02-11T11:58:02.046Z,13.71
2019-02-11T11:59:05.748Z,13.66
2019-02-11T12:00:24.374Z,13.69
2019-02-11T12:01:29.980Z,13.47
2019-02-11T12:02:33.711Z,13.56
2019-02-11T12:03:37.476Z,13.49
2019-02-11T12:04:41.199Z,13.45
2019-02-11T12:05:45.066Z,13.46
2019-02-11T12:06:48.765Z,13.49
2019-02-11T12:07:52.599Z,13.51
2019-02-11T12:08:59.207Z,13.49
2019-02-11T12:10:01.789Z,13.55
2019-02-11T12:11:05.584Z,13.54
2019-02-11T12:12:12.933Z,13.64
2019-02-11T12:13:22.278Z,13.69
2019-02-11T12:14:20.741Z,13.68
2019-02-11T12:15:27.127Z,13.74
2019-02-11T12:16:31.113Z,13.78
2019-02-11T12:17:34.806Z,13.77
2019-02-11T12:18:38.463Z,13.79
2019-02-11T12:19:42.186Z,13.81
2019-02-11T12:20:45.884Z,13.83
2019-02-11T12:21:49.682Z,13.77
2019-02-11T12:22:53.373Z,13.74
2019-02-11T12:23:57.022Z,13.65
2019-02-11T12:25:00.663Z,13.70
2019-02-11T12:26:04.637Z,13.75
2019-02-11T12:27:08.220Z,13.72
2019-02-11T12:28:11.858Z,13.80
2019-02-11T12:29:15.563Z,13.89
2019-02-11T12:30:26.859Z,13.80
2019-02-11T12:31:30.561Z,13.86
2019-02-11T12:32:34.396Z,13.81
2019-02-11T12:33:38.191Z,13.81
2019-02-11T12:34:41.842Z,13.87
2019-02-11T12:35:45.395Z,13.85
2019-02-11T12:36:52.716Z,13.87
2019-02-11T12:37:56.453Z,13.92
2019-02-11T12:39:00.001Z,13.87
2019-02-11T12:40:04.241Z,13.86
2019-02-11T12:41:07.950Z,13.95
2019-02-11T12:42:11.659Z,14.01
2019-02-11T12:43:15.325Z,13.91
2019-02-11T12:44:19.346Z,13.88
2019-02-11T12:45:24.765Z,13.90
2019-02-11T12:46:28.418Z,13.88
2019-02-11T12:47:32.143Z,13.90
2019-02-11T12:48:35.807Z,14.01
2019-02-11T12:49:39.513Z,14.00
2019-02-11T12:50:43.144Z,14.20
2019-02-11T12:51:46.783Z,14.20
2019-02-11T12:52:50.482Z,14.28
2019-02-11T12:53:54.222Z,14.41
2019-02-11T12:54:57.935Z,14.51
2019-02-11T12:56:02.645Z,14.67
2019-02-11T12:57:06.787Z,14.81
2019-02-11T12:58:10.418Z,14.75
2019-02-11T12:59:14.098Z,14.64
2019-02-11T13:00:24.451Z,14.64
2019-02-11T13:01:28.095Z,14.56
2019-02-11T13:02:31.722Z,14.49
2019-02-11T13:03:35.437Z,14.45
2019-02-11T13:04:39.204Z,14.53
2019-02-11T13:05:45.542Z,14.63
2019-02-11T13:06:48.267Z,14.70
2019-02-11T13:07:53.972Z,14.76
2019-02-11T13:08:57.661Z,15.24
2019-02-11T13:10:01.453Z,15.73
2019-02-11T13:11:05.361Z,16.19
2019-02-11T13:12:09.156Z,16.19
2019-02-11T13:13:12.869Z,16.72
2019-02-11T13:14:16.757Z,17.14
2019-02-11T13:15:52.829Z,17.14
2019-02-11T13:16:25.870Z,17.32
2019-02-11T13:17:33.705Z,17.55
2019-02-11T13:18:39.108Z,17.69
2019-02-11T13:19:40.430Z,17.92
2019-02-11T13:20:44.194Z,18.01
2019-02-11T13:21:47.901Z,18.24
2019-02-11T13:22:52.002Z,18.42
2019-02-11T13:23:55.702Z,18.66
2019-02-11T13:24:59.345Z,18.62
2019-02-11T13:26:03.284Z,18.71
2019-02-11T13:27:07.025Z,18.77
2019-02-11T13:28:10.697Z,18.78
2019-02-11T13:29:14.294Z,18.56
2019-02-11T13:30:22.441Z,18.32
2019-02-11T13:31:26.157Z,18.37
2019-02-11T13:32:29.799Z,18.35
2019-02-11T13:33:33.536Z,18.43
2019-02-11T13:34:37.222Z,18.07
2019-02-11T13:35:40.876Z,17.63
2019-02-11T13:36:44.624Z,17.41
2019-02-11T13:37:54.770Z,17.09
2019-02-11T13:38:56.448Z,16.65
2019-02-11T13:40:00.208Z,16.61
2019-02-11T13:41:03.945Z,16.50
2019-02-11T13:42:07.603Z,16.45
2019-02-11T13:43:11.318Z,16.71
2019-02-11T13:44:15.038Z,17.11
2019-02-11T13:45:22.644Z,17.39
2019-02-11T13:46:26.342Z,17.68
2019-02-11T13:47:30.100Z,17.34
2019-02-11T13:48:34.634Z,17.08
2019-02-11T13:49:38.499Z,16.84
2019-02-11T13:50:42.343Z,16.54
2019-02-11T13:51:46.009Z,16.19
2019-02-11T13:52:50.497Z,15.95
2019-02-11T13:53:54.381Z,15.65
2019-02-11T13:54:57.994Z,15.46
2019-02-11T13:56:05.041Z,15.29
2019-02-11T13:57:07.625Z,15.11
2019-02-11T13:58:11.390Z,14.93
2019-02-11T13:59:15.097Z,14.91
2019-02-11T14:00:25.571Z,14.78